createdAt,value
2023-04-05T00:00:57.102Z,4.10
2023-04-05T00:03:24.414Z,4.10
2023-04-05T00:05:51.135Z,3.85
2023-04-05T00:08:24.120Z,3.20
2023-04-05T00:10:50.876Z,4.03
2023-04-05T00:13:17.325Z,3.78
2023-04-05T00:15:43.789Z,3.83
2023-04-05T00:18:22.172Z,3.40
2023-04-05T00:20:49.106Z,3.83
2023-04-05T00:23:16.937Z,3.40
2023-04-05T00:25:43.356Z,4.37
2023-04-05T00:28:09.867Z,3.83
2023-04-05T00:30:36.486Z,3.85
2023-04-05T00:33:03.149Z,3.50
2023-04-05T00:35:29.651Z,4.15
2023-04-05T00:37:56.222Z,3.30
2023-04-05T00:40:22.635Z,3.12
2023-04-05T00:42:49.050Z,3.00
2023-04-05T00:45:15.680Z,3.37
2023-04-05T00:47:42.166Z,3.20
2023-04-05T00:50:08.864Z,3.53
2023-04-05T00:52:35.456Z,4.03
2023-04-05T00:55:01.930Z,3.62
2023-04-05T00:57:30.371Z,3.60
2023-04-05T00:59:56.812Z,3.62
2023-04-05T01:02:24.810Z,3.30
2023-04-05T01:04:51.384Z,3.37
2023-04-05T01:07:19.983Z,3.25
2023-04-05T01:09:46.421Z,2.80
2023-04-05T01:12:12.852Z,3.55
2023-04-05T01:14:39.281Z,3.45
2023-04-05T01:17:05.698Z,3.40
2023-04-05T01:19:35.316Z,3.37
2023-04-05T01:22:13.861Z,3.05
2023-04-05T01:24:40.365Z,3.10
2023-04-05T01:27:06.865Z,3.50
2023-04-05T01:29:33.297Z,3.60
2023-04-05T01:31:59.740Z,3.37
2023-04-05T01:34:26.252Z,3.58
2023-04-05T01:36:53.156Z,3.40
2023-04-05T01:39:19.642Z,3.75
2023-04-05T01:41:46.157Z,3.60
2023-04-05T01:44:12.585Z,3.65
2023-04-05T01:46:39.114Z,3.35
2023-04-05T01:49:05.625Z,3.22
2023-04-05T01:51:33.344Z,3.47
2023-04-05T01:53:59.955Z,3.37
2023-04-05T01:56:27.618Z,3.37
2023-04-05T01:58:54.102Z,3.45
2023-04-05T02:01:20.586Z,3.50
2023-04-05T02:03:47.188Z,3.72
2023-04-05T02:06:13.669Z,3.67
2023-04-05T02:08:40.086Z,3.58
2023-04-05T02:11:06.536Z,3.92
2023-04-05T02:13:32.989Z,3.78
2023-04-05T02:15:59.471Z,3.20
2023-04-05T02:18:31.536Z,3.85
2023-04-05T02:21:00.190Z,3.70
2023-04-05T02:23:28.107Z,3.28
2023-04-05T02:25:54.557Z,3.67
2023-04-05T02:28:20.987Z,3.45
2023-04-05T02:30:47.414Z,3.40
2023-04-05T02:33:13.843Z,3.40
2023-04-05T02:35:40.297Z,3.12
2023-04-05T02:38:07.323Z,3.12
2023-04-05T02:40:33.821Z,3.70
2023-04-05T02:43:00.303Z,3.33
2023-04-05T02:45:28.068Z,3.78
2023-04-05T02:47:55.010Z,3.50
2023-04-05T02:50:21.542Z,3.40
2023-04-05T02:52:48.336Z,3.33
2023-04-05T02:55:14.767Z,3.20
2023-04-05T02:57:41.373Z,3.33
2023-04-05T03:00:08.838Z,3.22
2023-04-05T03:02:35.331Z,3.40
2023-04-05T03:05:02.619Z,2.87
2023-04-05T03:07:29.730Z,2.87
2023-04-05T03:09:57.003Z,3.97
2023-04-05T03:12:23.425Z,2.72
2023-04-05T03:14:49.876Z,3.35
2023-04-05T03:17:16.374Z,3.40
2023-04-05T03:19:42.869Z,3.25
2023-04-05T03:22:09.316Z,3.25
2023-04-05T03:24:35.784Z,3.53
2023-04-05T03:27:02.625Z,3.25
2023-04-05T03:29:29.055Z,3.42
2023-04-05T03:31:55.763Z,2.92
2023-04-05T03:34:22.500Z,3.33
2023-04-05T03:36:49.941Z,3.28
2023-04-05T03:39:16.373Z,3.80
2023-04-05T03:41:42.820Z,3.30
2023-04-05T03:44:09.241Z,3.30
2023-04-05T03:46:38.160Z,4.00
2023-04-05T03:49:04.731Z,3.22
2023-04-05T03:51:31.392Z,3.42
2023-04-05T03:53:57.808Z,3.28
2023-04-05T03:56:24.240Z,3.92
2023-04-05T03:58:50.726Z,3.55
2023-04-05T04:01:17.205Z,3.33
2023-04-05T04:03:43.643Z,3.28
2023-04-05T04:06:10.160Z,3.67
2023-04-05T04:08:36.704Z,3.95
2023-04-05T04:11:03.191Z,4.20
2023-04-05T04:13:29.635Z,3.62
2023-04-05T04:15:56.211Z,3.53
2023-04-05T04:18:22.714Z,3.62
2023-04-05T04:20:49.395Z,3.67
2023-04-05T04:23:16.438Z,3.50
2023-04-05T04:25:46.365Z,3.22
2023-04-05T04:28:12.984Z,3.65
2023-04-05T04:30:39.445Z,3.75
2023-04-05T04:33:09.076Z,2.95
2023-04-05T04:35:39.305Z,3.42
2023-04-05T04:38:06.068Z,3.47
2023-04-05T04:40:39.134Z,3.40
2023-04-05T04:43:05.657Z,3.55
2023-04-05T04:45:35.112Z,3.42
2023-04-05T04:48:01.749Z,3.78
2023-04-05T04:50:28.275Z,3.50
2023-04-05T04:52:54.734Z,3.65
2023-04-05T04:55:25.436Z,3.30
2023-04-05T04:57:51.887Z,3.12
2023-04-05T05:00:18.404Z,3.20
2023-04-05T05:02:44.849Z,3.50
2023-04-05T05:05:11.539Z,3.55
2023-04-05T05:07:38.003Z,4.00
2023-04-05T05:10:04.477Z,3.70
2023-04-05T05:12:31.802Z,3.72
2023-04-05T05:14:58.340Z,3.58
2023-04-05T05:17:24.953Z,3.90
2023-04-05T05:19:52.260Z,3.33
2023-04-05T05:22:19.428Z,3.85
2023-04-05T05:24:46.792Z,3.97
2023-04-05T05:27:13.227Z,3.97
2023-04-05T05:29:39.712Z,4.00
2023-04-05T05:32:06.670Z,3.53
2023-04-05T05:34:33.611Z,3.60
2023-04-05T05:37:00.113Z,3.55
2023-04-05T05:39:26.552Z,4.07
2023-04-05T05:41:53.156Z,3.70
2023-04-05T05:44:19.588Z,3.90
2023-04-05T05:46:46.318Z,3.65
2023-04-05T05:49:12.870Z,3.90
2023-04-05T05:51:39.348Z,4.25
2023-04-05T05:54:05.916Z,3.50
2023-04-05T05:56:32.343Z,3.62
2023-04-05T05:58:59.717Z,4.30
2023-04-05T06:01:28.494Z,4.10
2023-04-05T06:03:55.349Z,4.05
2023-04-05T06:06:22.312Z,4.43
2023-04-05T06:08:49.702Z,4.78
2023-04-05T06:11:16.160Z,3.92
2023-04-05T06:13:42.604Z,4.70
2023-04-05T06:16:09.082Z,4.62
2023-04-05T06:18:35.553Z,4.53
2023-04-05T06:21:01.968Z,4.40
2023-04-05T06:23:28.374Z,4.80
2023-04-05T06:25:56.808Z,4.57
2023-04-05T06:28:23.235Z,5.53
2023-04-05T06:30:49.730Z,4.30
2023-04-05T06:33:16.139Z,4.60
2023-04-05T06:35:42.591Z,4.82
2023-04-05T06:38:09.646Z,5.55
2023-04-05T06:40:36.352Z,5.25
2023-04-05T06:43:02.763Z,5.18
2023-04-05T06:45:29.190Z,5.37
2023-04-05T06:47:55.615Z,5.62
2023-04-05T06:50:22.106Z,6.03
2023-04-05T06:52:48.572Z,5.93
2023-04-05T06:55:15.001Z,5.37
2023-04-05T06:57:41.544Z,5.07
2023-04-05T07:00:12.042Z,5.22
2023-04-05T07:02:38.571Z,5.78
2023-04-05T07:05:06.099Z,5.28
2023-04-05T07:07:33.567Z,5.82
2023-04-05T07:10:00.020Z,5.95
2023-04-05T07:12:26.454Z,5.75
2023-04-05T07:14:52.870Z,6.18
2023-04-05T07:17:19.291Z,5.45
2023-04-05T07:19:46.458Z,5.35
2023-04-05T07:22:12.926Z,5.65
2023-04-05T07:24:39.366Z,6.05
2023-04-05T07:27:05.804Z,5.07
2023-04-05T07:29:32.250Z,5.82
2023-04-05T07:31:58.894Z,5.28
2023-04-05T07:34:25.646Z,4.35
2023-04-05T07:36:52.265Z,4.32
2023-04-05T07:39:18.802Z,4.60
2023-04-05T07:41:45.214Z,3.95
2023-04-05T07:44:11.647Z,3.97
2023-04-05T07:46:39.473Z,4.15
2023-04-05T07:49:06.027Z,4.80
2023-04-05T07:51:36.360Z,4.00
2023-04-05T07:54:03.342Z,4.28
2023-04-05T07:56:30.897Z,3.90
2023-04-05T07:58:57.377Z,4.40
2023-04-05T08:01:27.958Z,3.83
2023-04-05T08:03:54.459Z,4.60
2023-04-05T08:06:20.934Z,3.87
2023-04-05T08:08:47.389Z,4.18
2023-04-05T08:11:13.814Z,4.05
2023-04-05T08:13:44.002Z,3.75
2023-04-05T08:16:10.677Z,3.90
2023-04-05T08:18:37.195Z,4.03
2023-04-05T08:21:03.637Z,3.80
2023-04-05T08:23:30.233Z,4.00
2023-04-05T08:25:56.910Z,3.85
2023-04-05T08:28:23.357Z,3.90
2023-04-05T08:30:50.019Z,3.97
2023-04-05T08:33:16.519Z,4.00
2023-04-05T08:35:43.376Z,3.50
2023-04-05T08:38:09.877Z,3.40
2023-04-05T08:40:36.292Z,3.33
2023-04-05T08:43:02.774Z,3.75
2023-04-05T08:45:29.536Z,3.67
2023-04-05T08:47:56.182Z,3.47
2023-04-05T08:50:22.656Z,3.70
2023-04-05T08:52:50.193Z,3.67
2023-04-05T08:55:16.663Z,4.12
2023-04-05T08:57:43.078Z,4.20
2023-04-05T09:00:09.517Z,4.28
2023-04-05T09:02:36.051Z,3.78
2023-04-05T09:05:02.557Z,3.50
2023-04-05T09:07:28.987Z,3.80
2023-04-05T09:09:55.783Z,3.55
2023-04-05T09:12:25.941Z,3.37
2023-04-05T09:14:52.369Z,3.42
2023-04-05T09:17:19.469Z,3.30
2023-04-05T09:19:45.941Z,3.17
2023-04-05T09:22:12.438Z,3.30
2023-04-05T09:24:42.217Z,3.45
2023-04-05T09:27:08.919Z,3.42
2023-04-05T09:29:35.700Z,3.50
2023-04-05T09:32:03.083Z,3.45
2023-04-05T09:34:29.505Z,3.40
2023-04-05T09:36:55.936Z,3.53
2023-04-05T09:39:23.487Z,3.20
2023-04-05T09:41:49.881Z,3.10
2023-04-05T09:44:16.314Z,3.65
2023-04-05T09:46:44.003Z,3.10
2023-04-05T09:49:10.585Z,2.95
2023-04-05T09:51:37.047Z,3.15
2023-04-05T09:54:03.557Z,3.67
2023-04-05T09:56:29.987Z,3.30
2023-04-05T09:58:56.614Z,3.45
2023-04-05T10:01:23.439Z,3.10
2023-04-05T10:03:50.211Z,3.33
2023-04-05T10:06:17.392Z,4.12
2023-04-05T10:08:43.851Z,3.33
2023-04-05T10:11:10.919Z,3.92
2023-04-05T10:13:37.333Z,3.40
2023-04-05T10:16:03.790Z,3.10
2023-04-05T10:18:30.429Z,2.90
2023-04-05T10:20:56.911Z,3.20
2023-04-05T10:23:23.368Z,2.72
2023-04-05T10:25:52.290Z,2.87
2023-04-05T10:28:19.562Z,2.83
2023-04-05T10:30:46.238Z,2.78
2023-04-05T10:33:12.717Z,3.05
2023-04-05T10:35:39.318Z,3.05
2023-04-05T10:38:05.939Z,2.87
2023-04-05T10:40:32.360Z,2.70
2023-04-05T10:42:58.903Z,2.45
2023-04-05T10:45:25.349Z,2.85
2023-04-05T10:47:51.880Z,3.00
2023-04-05T10:50:18.378Z,3.35
2023-04-05T10:52:44.932Z,2.78
2023-04-05T10:55:11.677Z,3.28
2023-04-05T10:57:38.090Z,2.83
2023-04-05T11:00:04.532Z,2.47
2023-04-05T11:02:31.034Z,2.70
2023-04-05T11:04:57.803Z,2.70
2023-04-05T11:07:24.235Z,2.95
2023-04-05T11:09:51.044Z,2.67
2023-04-05T11:12:17.460Z,2.60
2023-04-05T11:14:44.743Z,2.60
2023-04-05T11:17:11.290Z,2.67
2023-04-05T11:19:37.834Z,2.83
2023-04-05T11:22:04.295Z,2.80
2023-04-05T11:24:31.841Z,2.65
2023-04-05T11:26:59.594Z,2.87
2023-04-05T11:29:26.113Z,2.58
2023-04-05T11:31:52.537Z,2.78
2023-04-05T11:34:18.952Z,2.40
2023-04-05T11:36:48.436Z,2.85
2023-04-05T11:39:14.899Z,2.33
2023-04-05T11:41:41.328Z,2.60
2023-04-05T11:44:07.777Z,3.28
2023-04-05T11:46:34.321Z,2.97
2023-04-05T11:49:00.901Z,2.92
2023-04-05T11:51:29.304Z,3.08
2023-04-05T11:53:55.776Z,3.15
2023-04-05T11:56:22.498Z,2.90
2023-04-05T11:58:49.068Z,3.12
2023-04-05T12:01:15.794Z,2.70
2023-04-05T12:03:42.276Z,2.92
2023-04-05T12:06:08.829Z,2.83
2023-04-05T12:08:35.244Z,2.85
2023-04-05T12:11:01.672Z,3.05
2023-04-05T12:13:28.778Z,3.08
2023-04-05T12:15:55.266Z,2.70
2023-04-05T12:18:21.721Z,2.83
2023-04-05T12:20:48.152Z,2.97
2023-04-05T12:23:14.634Z,2.70
2023-04-05T12:25:43.079Z,2.95
2023-04-05T12:28:09.925Z,2.62
2023-04-05T12:30:39.454Z,2.95
2023-04-05T12:33:07.968Z,2.95
2023-04-05T12:35:35.394Z,2.72
2023-04-05T12:38:02.321Z,2.80
2023-04-05T12:40:31.079Z,2.78
2023-04-05T12:42:57.562Z,2.78
2023-04-05T12:45:24.085Z,3.10
2023-04-05T12:47:50.987Z,2.95
2023-04-05T12:50:17.544Z,3.53
2023-04-05T12:52:44.043Z,3.15
2023-04-05T12:55:10.521Z,3.00
2023-04-05T12:57:36.930Z,2.78
2023-04-05T13:00:03.376Z,3.17
2023-04-05T13:02:29.928Z,2.78
2023-04-05T13:04:56.592Z,2.40
2023-04-05T13:07:23.018Z,2.83
2023-04-05T13:09:49.453Z,3.10
2023-04-05T13:12:15.866Z,3.00
2023-04-05T13:14:42.323Z,2.70
2023-04-05T13:17:08.969Z,2.80
2023-04-05T13:19:35.578Z,10.40
2023-04-05T13:22:02.061Z,6.57
2023-04-05T13:24:28.506Z,2.92
2023-04-05T13:26:54.929Z,2.72
2023-04-05T13:29:21.365Z,2.58
2023-04-05T13:31:47.796Z,2.87
2023-04-05T13:34:14.232Z,3.05
2023-04-05T13:36:40.818Z,2.60
2023-04-05T13:39:07.306Z,2.60
2023-04-05T13:41:33.714Z,3.53
2023-04-05T13:44:01.963Z,3.03
2023-04-05T13:46:29.625Z,2.60
2023-04-05T13:48:56.214Z,2.78
2023-04-05T13:51:23.185Z,3.03
2023-04-05T13:53:49.621Z,2.67
2023-04-05T13:56:16.086Z,2.72
2023-04-05T13:58:42.556Z,3.85
2023-04-05T14:01:09.014Z,8.75
2023-04-05T14:03:35.593Z,4.78
2023-04-05T14:06:02.127Z,5.00
2023-04-05T14:08:28.626Z,7.47
2023-04-05T14:10:55.051Z,3.30
2023-04-05T14:13:21.649Z,2.90
2023-04-05T14:15:48.164Z,2.85
2023-04-05T14:18:14.621Z,2.97
2023-04-05T14:20:41.391Z,2.42
2023-04-05T14:23:08.127Z,2.65
2023-04-05T14:25:34.687Z,2.78
2023-04-05T14:28:01.313Z,2.83
2023-04-05T14:30:27.727Z,2.70
2023-04-05T14:32:54.216Z,3.15
2023-04-05T14:35:20.692Z,2.70
2023-04-05T14:37:47.123Z,2.20
2023-04-05T14:40:13.546Z,2.35
2023-04-05T14:42:48.585Z,2.30
2023-04-05T14:45:16.727Z,2.10
2023-04-05T14:47:43.245Z,2.12
2023-04-05T14:50:09.731Z,2.55
2023-04-05T14:52:36.320Z,2.50
2023-04-05T14:55:02.822Z,2.22
2023-04-05T14:57:29.235Z,2.35
2023-04-05T14:59:56.032Z,2.42
2023-04-05T15:02:22.497Z,2.47
2023-04-05T15:04:48.982Z,2.37
2023-04-05T15:07:15.547Z,2.22
2023-04-05T15:09:43.188Z,2.30
2023-04-05T15:12:09.620Z,2.12
2023-04-05T15:14:36.247Z,2.50
2023-04-05T15:17:02.765Z,2.08
2023-04-05T15:19:30.744Z,2.78
2023-04-05T15:21:57.280Z,2.87
2023-04-05T15:24:23.774Z,2.25
2023-04-05T15:26:50.287Z,2.67
2023-04-05T15:29:16.732Z,2.70
2023-04-05T15:31:43.185Z,2.53
2023-04-05T15:34:09.607Z,2.97
2023-04-05T15:36:36.377Z,2.70
2023-04-05T15:39:02.817Z,2.58
2023-04-05T15:41:29.227Z,2.80
2023-04-05T15:43:55.721Z,2.35
2023-04-05T15:46:22.232Z,2.72
2023-04-05T15:48:48.877Z,2.40
2023-04-05T15:51:15.517Z,2.28
2023-04-05T15:53:41.982Z,2.45
2023-04-05T15:56:08.457Z,2.50
2023-04-05T15:58:36.889Z,2.53
2023-04-05T16:01:03.337Z,2.40
2023-04-05T16:03:29.828Z,2.42
2023-04-05T16:05:56.369Z,2.28
2023-04-05T16:08:22.815Z,2.37
2023-04-05T16:10:49.244Z,2.30
2023-04-05T16:13:15.990Z,2.60
2023-04-05T16:15:42.492Z,2.70
2023-04-05T16:18:10.178Z,2.40
2023-04-05T16:20:36.638Z,2.05
2023-04-05T16:23:03.086Z,2.28
2023-04-05T16:25:29.650Z,2.72
2023-04-05T16:27:56.234Z,2.55
2023-04-05T16:30:22.646Z,2.05
2023-04-05T16:32:49.090Z,2.30
2023-04-05T16:35:15.928Z,2.55
2023-04-05T16:37:43.089Z,2.40
2023-04-05T16:40:10.655Z,2.70
2023-04-05T16:42:37.749Z,2.83
2023-04-05T16:45:04.184Z,2.58
2023-04-05T16:47:30.654Z,2.45
2023-04-05T16:49:57.137Z,2.33
2023-04-05T16:52:23.612Z,2.10
2023-04-05T16:54:50.056Z,2.58
2023-04-05T16:57:16.491Z,2.35
2023-04-05T16:59:43.036Z,2.53
2023-04-05T17:02:09.570Z,3.08
2023-04-05T17:04:37.685Z,2.85
2023-04-05T17:07:04.213Z,2.80
2023-04-05T17:09:30.718Z,3.95
2023-04-05T17:11:57.174Z,4.30
2023-04-05T17:14:23.690Z,3.65
2023-04-05T17:16:50.106Z,2.60
2023-04-05T17:19:17.120Z,2.50
2023-04-05T17:21:45.634Z,2.45
2023-04-05T17:24:12.048Z,2.35
2023-04-05T17:26:38.516Z,2.60
2023-04-05T17:29:05.212Z,2.80
2023-04-05T17:31:33.559Z,3.03
2023-04-05T17:34:00.208Z,3.05
2023-04-05T17:36:27.607Z,2.42
2023-04-05T17:38:54.100Z,2.70
2023-04-05T17:41:20.515Z,2.80
2023-04-05T17:43:47.028Z,2.40
2023-04-05T17:46:15.145Z,2.80
2023-04-05T17:48:41.678Z,2.75
2023-04-05T17:51:08.269Z,2.65
2023-04-05T17:53:34.699Z,2.55
2023-04-05T17:56:01.285Z,2.83
2023-04-05T17:58:30.294Z,2.50
2023-04-05T18:00:57.108Z,2.40
2023-04-05T18:03:24.094Z,2.78
2023-04-05T18:05:51.499Z,2.37
2023-04-05T18:08:17.926Z,2.50
2023-04-05T18:10:44.380Z,2.60
2023-04-05T18:13:10.889Z,3.30
2023-04-05T18:15:37.319Z,2.75
2023-04-05T18:18:03.782Z,2.97
2023-04-05T18:20:30.422Z,2.40
2023-04-05T18:22:57.416Z,3.35
2023-04-05T18:25:23.941Z,2.80
2023-04-05T18:27:50.405Z,2.80
2023-04-05T18:30:16.826Z,2.60
2023-04-05T18:32:43.334Z,2.62
2023-04-05T18:35:09.905Z,2.65
2023-04-05T18:37:36.709Z,2.12
2023-04-05T18:40:03.155Z,2.60
2023-04-05T18:42:29.622Z,3.05
2023-04-05T18:44:56.184Z,2.75
2023-04-05T18:47:22.669Z,3.12
2023-04-05T18:49:49.217Z,2.92
2023-04-05T18:52:17.490Z,3.40
2023-04-05T18:54:44.004Z,2.90
2023-04-05T18:57:10.434Z,2.47
2023-04-05T18:59:36.934Z,2.80
2023-04-05T19:02:05.225Z,2.47
2023-04-05T19:04:31.774Z,2.78
2023-04-05T19:06:58.190Z,2.80
2023-04-05T19:09:24.689Z,2.47
2023-04-05T19:11:51.127Z,2.85
2023-04-05T19:14:17.561Z,3.53
2023-04-05T19:16:44.017Z,3.90
2023-04-05T19:19:10.481Z,3.55
2023-04-05T19:21:36.994Z,3.92
2023-04-05T19:24:03.445Z,3.75
2023-04-05T19:26:29.863Z,3.92
2023-04-05T19:28:56.360Z,4.10
2023-04-05T19:31:22.926Z,3.15
2023-04-05T19:33:50.444Z,3.15
2023-04-05T19:36:17.054Z,3.45
2023-04-05T19:38:43.563Z,3.20
2023-04-05T19:41:11.348Z,3.90
2023-04-05T19:43:39.616Z,3.17
2023-04-05T19:46:06.537Z,3.97
2023-04-05T19:48:32.987Z,4.07
2023-04-05T19:51:22.968Z,3.85
2023-04-05T19:53:49.656Z,3.30
2023-04-05T19:56:16.523Z,3.42
2023-04-05T19:58:43.089Z,3.65
2023-04-05T20:04:12.457Z,3.72
2023-04-05T20:06:39.094Z,3.60
2023-04-05T20:09:05.755Z,4.05
2023-04-05T20:11:33.148Z,3.87
2023-04-05T20:14:01.225Z,4.37
2023-04-05T20:16:27.862Z,4.15
2023-04-05T20:18:54.466Z,4.45
2023-04-05T20:21:21.140Z,4.62
2023-04-05T20:23:47.665Z,4.60
2023-04-05T20:26:15.170Z,3.42
2023-04-05T20:28:42.953Z,4.37
2023-04-05T20:31:09.467Z,4.35
2023-04-05T20:33:36.304Z,4.68
2023-04-05T20:36:10.120Z,5.20
2023-04-05T20:38:36.659Z,5.03
2023-04-05T20:41:03.134Z,5.80
2023-04-05T20:43:31.409Z,5.47
2023-04-05T20:45:58.051Z,5.65
2023-04-05T20:48:24.476Z,5.62
2023-04-05T20:50:50.987Z,5.35
2023-04-05T20:53:17.436Z,6.00
2023-04-05T20:55:44.205Z,5.47
2023-04-05T20:58:10.611Z,5.30
2023-04-05T21:00:37.424Z,6.15
2023-04-05T21:03:03.985Z,5.97
2023-04-05T21:05:30.485Z,6.10
2023-04-05T21:07:57.570Z,6.20
2023-04-05T21:10:24.135Z,6.35
2023-04-05T21:12:51.399Z,6.22
2023-04-05T21:15:19.253Z,6.53
2023-04-05T21:17:45.881Z,5.85
2023-04-05T21:20:12.333Z,6.65
2023-04-05T21:22:38.756Z,6.20
2023-04-05T21:25:08.206Z,6.07
2023-04-05T21:27:34.625Z,6.37
2023-04-05T21:30:01.052Z,5.97
2023-04-05T21:32:27.513Z,5.97
2023-04-05T21:34:54.000Z,6.65
2023-04-05T21:37:20.640Z,5.45
2023-04-05T21:39:47.071Z,5.22
2023-04-05T21:42:13.477Z,5.50
2023-04-05T21:44:39.950Z,5.50
2023-04-05T21:47:06.533Z,5.32
2023-04-05T21:49:32.984Z,5.53
2023-04-05T21:51:59.389Z,5.97
2023-04-05T21:54:25.900Z,5.80
2023-04-05T21:56:52.306Z,5.93
2023-04-05T21:59:18.752Z,6.25
2023-04-05T22:01:45.249Z,5.60
2023-04-05T22:04:11.727Z,5.85
2023-04-05T22:06:38.363Z,5.28
2023-04-05T22:09:04.782Z,4.87
2023-04-05T22:11:31.237Z,6.18
2023-04-05T22:13:57.644Z,5.05
2023-04-05T22:16:24.094Z,5.87
2023-04-05T22:18:50.572Z,5.03
2023-04-05T22:21:17.002Z,4.80
2023-04-05T22:23:43.444Z,4.97
2023-04-05T22:26:09.902Z,5.28
2023-04-05T22:28:36.332Z,4.80
2023-04-05T22:31:02.736Z,5.72
2023-04-05T22:33:29.214Z,5.82
2023-04-05T22:35:55.879Z,5.28
2023-04-05T22:38:22.379Z,5.57
2023-04-05T22:40:49.065Z,5.40
2023-04-05T22:43:15.650Z,5.53
2023-04-05T22:45:42.115Z,5.20
2023-04-05T22:48:08.598Z,5.53
2023-04-05T22:50:35.083Z,5.15
2023-04-05T22:53:01.499Z,5.15
2023-04-05T22:55:28.028Z,5.97
2023-04-05T22:57:54.472Z,5.47
2023-04-05T23:00:20.893Z,5.65
2023-04-05T23:02:47.357Z,6.07
2023-04-05T23:05:13.801Z,5.68
2023-04-05T23:07:40.406Z,6.00
2023-04-05T23:10:06.904Z,5.72
2023-04-05T23:12:33.367Z,5.53
2023-04-05T23:15:00.013Z,5.75
2023-04-05T23:17:26.803Z,5.75
2023-04-05T23:19:53.210Z,5.68
2023-04-05T23:22:19.681Z,5.28
2023-04-05T23:24:46.173Z,5.32
2023-04-05T23:27:12.597Z,5.00
2023-04-05T23:29:39.036Z,5.00
2023-04-05T23:32:06.997Z,5.60
2023-04-05T23:34:33.471Z,5.35
2023-04-05T23:36:59.911Z,5.50
2023-04-05T23:39:26.328Z,4.87
2023-04-05T23:41:52.771Z,5.45
2023-04-05T23:44:19.186Z,6.25
2023-04-05T23:46:45.712Z,4.95
2023-04-05T23:49:12.172Z,5.20
2023-04-05T23:51:38.634Z,5.00
2023-04-05T23:54:05.079Z,4.57
2023-04-05T23:56:31.950Z,5.78
2023-04-05T23:58:58.461Z,5.85
